Time;durP1;ratioP1;P1;durP2;ratioP2;P2;SDS_P1;SDS_P2;PMS_P1;PMS_P2;Temp;Humidity;BMP_temperature;BMP_pressure;BME280_temperature;BME280_humidity;BME280_pressure;Samples;Min_cycle;Max_cycle;Signal;HPM_P1;HPM_P2
2022/06/13 00:00:11;;;;;;;0.30;0.30;;;;;;;15.63;54.04;98843.53;4750980;30;20070;-86
2022/06/13 00:02:43;;;;;;;0.30;0.30;;;;;;;15.63;53.77;98840.81;4764207;30;20420;-86
2022/06/13 00:05:10;;;;;;;0.30;0.30;;;;;;;15.63;53.49;98843.53;4749629;30;20063;-85
2022/06/13 00:07:38;;;;;;;0.28;0.28;;;;;;;15.63;53.42;98838.09;4764837;30;20059;-86
2022/06/13 00:10:06;;;;;;;0.30;0.30;;;;;;;15.61;53.72;98831.00;4753967;30;20071;-86
2022/06/13 00:12:34;;;;;;;0.30;0.30;;;;;;;15.63;53.52;98825.28;4752792;30;20452;-86
2022/06/13 00:15:02;;;;;;;0.30;0.30;;;;;;;15.63;53.26;98832.66;4754038;30;20052;-87
2022/06/13 00:17:30;;;;;;;0.30;0.30;;;;;;;15.60;53.40;98825.88;4767936;30;20074;-87
2022/06/13 00:19:57;;;;;;;0.30;0.30;;;;;;;15.58;53.32;98812.53;4753755;30;20060;-86
2022/06/13 00:22:29;;;;;;;0.30;0.30;;;;;;;15.54;53.23;98814.19;4754066;30;20475;-87
2022/06/13 00:24:57;;;;;;;0.30;0.30;;;;;;;15.53;53.01;98818.00;4752702;30;20471;-85
2022/06/13 00:27:24;;;;;;;0.30;0.30;;;;;;;15.56;52.90;98817.44;4754760;30;20588;-86
2022/06/13 00:29:51;;;;;;;0.30;0.30;;;;;;;15.57;52.80;98820.97;4753894;30;20056;-86
2022/06/13 00:32:18;;;;;;;0.30;0.30;;;;;;;15.54;52.35;98816.91;4753545;30;20498;-86
2022/06/13 00:34:47;;;;;;;0.30;0.30;;;;;;;15.54;52.44;98813.38;4753512;30;20067;-86
2022/06/13 00:37:14;;;;;;;0.30;0.30;;;;;;;15.50;52.34;98813.13;4767399;30;20052;-85
2022/06/13 00:39:42;;;;;;;0.30;0.30;;;;;;;15.54;52.02;98816.91;4770436;30;20052;-86
2022/06/13 00:42:16;;;;;;;0.30;0.30;;;;;;;15.63;51.99;98816.31;4770343;30;20129;-85
2022/06/13 00:45:02;;;;;;;0.30;0.30;;;;;;;15.63;52.11;98811.69;4787282;30;20055;-85
2022/06/13 00:47:29;;;;;;;0.30;0.30;;;;;;;15.58;52.10;98800.84;4782353;30;20059;-84
2022/06/13 00:49:59;;;;;;;0.30;0.30;;;;;;;15.62;52.13;98804.59;4789878;30;20048;-85
2022/06/13 00:52:37;;;;;;;0.30;0.30;;;;;;;15.64;52.09;98816.03;4781942;30;20056;-85
2022/06/13 00:55:05;;;;;;;0.30;0.30;;;;;;;15.56;52.11;98801.13;4786221;30;20068;-87
2022/06/13 00:57:35;;;;;;;0.30;0.30;;;;;;;15.57;52.55;98808.19;4773703;30;20067;-86
2022/06/13 01:00:07;;;;;;;0.30;0.30;;;;;;;15.51;52.71;98809.31;4774348;30;20521;-86
2022/06/13 01:02:36;;;;;;;0.30;0.30;;;;;;;15.51;52.78;98814.75;4777510;30;20075;-85
2022/06/13 01:05:04;;;;;;;0.30;0.30;;;;;;;15.54;52.69;98819.63;4771969;30;20056;-86
2022/06/13 01:07:32;;;;;;;0.30;0.30;;;;;;;15.58;52.96;98822.59;4771175;30;20074;-86
2022/06/13 01:12:48;;;;;;;0.30;0.30;;;;;;;15.68;53.14;98824.44;4770047;30;20063;-86
2022/06/13 01:15:43;;;;;;;0.30;0.30;;;;;;;15.73;53.17;98827.97;4770942;30;20186;-85
2022/06/13 01:18:29;;;;;;;0.30;0.30;;;;;;;15.77;52.61;98825.50;4770582;30;20052;-86
2022/06/13 01:21:15;;;;;;;0.30;0.30;;;;;;;15.88;52.73;98835.22;4770782;30;20085;-86
2022/06/13 01:24:11;;;;;;;0.30;0.30;;;;;;;15.90;52.47;98838.47;4770979;30;20060;-86
2022/06/13 01:26:46;;;;;;;0.30;0.30;;;;;;;15.92;52.18;98836.25;4770560;30;20058;-86
2022/06/13 01:29:28;;;;;;;0.30;0.30;;;;;;;15.98;52.23;98835.16;4770850;30;20078;-86
2022/06/13 01:32:23;;;;;;;0.30;0.30;;;;;;;16.04;52.24;98838.63;4770612;30;20150;-85
2022/06/13 01:35:13;;;;;;;0.30;0.30;;;;;;;16.06;52.35;98822.03;4769352;30;20143;-86
2022/06/13 01:38:04;;;;;;;0.30;0.30;;;;;;;16.07;52.37;98827.16;4769303;30;20055;-86
2022/06/13 01:41:10;;;;;;;0.30;0.30;;;;;;;16.17;52.22;98829.00;4770760;30;20117;-85
2022/06/13 01:44:01;;;;;;;0.30;0.30;;;;;;;16.17;52.64;98826.28;4768149;30;20052;-85
2022/06/13 01:46:48;;;;;;;0.30;0.30;;;;;;;16.18;53.14;98819.72;4768243;30;20132;-86
2022/06/13 01:49:16;;;;;;;0.30;0.30;;;;;;;16.15;53.12;98817.56;4767669;30;20535;-86
2022/06/13 01:52:05;;;;;;;0.30;0.30;;;;;;;16.16;53.33;98813.78;4768233;30;20060;-87
2022/06/13 01:54:42;;;;;;;0.30;0.30;;;;;;;16.22;53.39;98812.63;4773251;30;20051;-85
2022/06/13 01:57:13;;;;;;;0.30;0.30;;;;;;;16.29;53.65;98809.56;4741989;30;20060;-86
2022/06/13 01:59:51;;;;;;;0.30;0.30;;;;;;;16.32;53.43;98811.72;4768329;30;20056;-86
2022/06/13 02:02:31;;;;;;;0.30;0.30;;;;;;;16.36;53.31;98810.06;4753506;30;20051;-85
2022/06/13 02:05:27;;;;;;;0.30;0.30;;;;;;;16.45;53.39;98816.47;4767810;30;20150;-86
2022/06/13 02:08:08;;;;;;;0.30;0.30;;;;;;;16.52;53.44;98816.16;4767463;30;20542;-86
2022/06/13 02:10:56;;;;;;;0.30;0.30;;;;;;;16.56;53.31;98814.47;4752704;30;20056;-85
2022/06/13 02:13:47;;;;;;;0.30;0.30;;;;;;;16.57;53.59;98807.94;4738686;30;20401;-86
2022/06/13 02:16:26;;;;;;;0.30;0.30;;;;;;;16.51;54.09;98803.63;4770134;30;20524;-85
2022/06/13 02:19:05;;;;;;;0.30;0.30;;;;;;;16.53;54.35;98804.94;4758197;30;20056;-84
2022/06/13 02:22:07;;;;;;;0.30;0.30;;;;;;;16.59;55.06;98800.28;4751526;30;20056;-85
2022/06/13 02:24:37;;;;;;;0.30;0.30;;;;;;;16.57;55.16;98792.38;4732858;30;20066;-85
2022/06/13 02:27:08;;;;;;;0.30;0.30;;;;;;;16.60;54.74;98791.00;4732067;30;20056;-85
2022/06/13 02:29:42;;;;;;;0.30;0.30;;;;;;;16.62;54.73;98805.16;4723461;30;20498;-88
2022/06/13 02:32:13;;;;;;;0.30;0.30;;;;;;;16.59;55.09;98811.19;4740568;30;20087;-86
2022/06/13 02:34:52;;;;;;;0.30;0.30;;;;;;;16.61;55.61;98798.91;4749329;30;20619;-84
2022/06/13 02:37:27;;;;;;;0.30;0.30;;;;;;;16.60;55.23;98797.25;4748947;30;20056;-87
2022/06/13 02:40:12;;;;;;;0.30;0.30;;;;;;;16.69;55.15;98797.44;4749067;30;20809;-86
2022/06/13 02:42:46;;;;;;;0.20;0.20;;;;;;;16.64;55.47;98795.59;4746321;30;20541;-86
2022/06/13 02:45:18;;;;;;;0.30;0.30;;;;;;;16.64;55.41;98797.50;4736352;30;20063;-86
2022/06/13 02:48:20;;;;;;;0.30;0.30;;;;;;;16.63;55.50;98799.41;4733357;30;20161;-87
2022/06/13 02:50:52;;;;;;;0.30;0.30;;;;;;;16.54;55.71;98803.88;4699471;30;20155;-83
2022/06/13 02:53:34;;;;;;;0.30;0.30;;;;;;;16.50;56.12;98796.56;4713992;30;20111;-85
2022/06/13 02:56:35;;;;;;;0.30;0.30;;;;;;;16.43;56.28;98802.34;4717830;30;20056;-86
2022/06/13 02:59:22;;;;;;;0.30;0.30;;;;;;;16.29;56.61;98802.22;4710141;30;20061;-87
2022/06/13 03:01:51;;;;;;;0.30;0.30;;;;;;;16.23;57.03;98798.72;4682727;30;20057;-86
2022/06/13 03:04:32;;;;;;;0.30;0.30;;;;;;;16.25;56.88;98796.53;4682580;30;20087;-88
2022/06/13 03:07:23;;;;;;;0.30;0.30;;;;;;;16.19;57.20;98803.09;4681832;30;20477;-85
2022/06/13 03:09:58;;;;;;;0.30;0.30;;;;;;;16.18;57.19;98798.78;4682755;30;20498;-86
2022/06/13 03:12:32;;;;;;;;;;;;;;;16.13;57.12;98789.81;4697354;30;20152;-86
2022/06/13 03:15:09;;;;;;;0.30;0.30;;;;;;;16.09;57.66;98791.50;4713662;30;20053;-86
2022/06/13 03:18:08;;;;;;;0.30;0.30;;;;;;;16.19;57.44;98794.94;4712865;30;20065;-85
2022/06/13 03:21:07;;;;;;;0.30;0.30;;;;;;;16.22;58.01;98791.63;4713710;30;20584;-86
2022/06/13 03:23:40;;;;;;;0.30;0.30;;;;;;;16.14;58.39;98783.28;4699075;30;20060;-86
2022/06/13 03:26:21;;;;;;;0.30;0.30;;;;;;;16.02;58.28;98787.19;4734068;30;20113;-86
2022/06/13 03:29:04;;;;;;;0.30;0.30;;;;;;;16.17;58.29;98782.72;4768130;30;20515;-85
2022/06/13 03:31:36;;;;;;;0.30;0.30;;;;;;;16.33;57.78;98781.47;4782437;30;20051;-85
2022/06/13 03:34:08;;;;;;;0.40;0.40;;;;;;;16.46;58.51;98780.78;4768488;30;20523;-87
2022/06/13 03:36:39;;;;;;;0.30;0.30;;;;;;;16.64;57.68;98786.59;4752414;30;20055;-87
2022/06/13 03:39:37;;;;;;;0.30;0.30;;;;;;;16.85;57.45;98785.28;4768095;30;20060;-87
2022/06/13 03:42:14;;;;;;;0.40;0.40;;;;;;;16.99;56.61;98770.94;4747999;30;20068;-87
2022/06/13 03:44:51;;;;;;;0.30;0.30;;;;;;;17.19;56.71;98787.06;4750209;30;20453;-86
2022/06/13 03:47:31;;;;;;;0.30;0.30;;;;;;;17.29;55.96;98780.63;4736760;30;20077;-85
2022/06/13 03:50:07;;;;;;;0.30;0.30;;;;;;;17.42;56.01;98781.81;4734030;30;20052;-85
2022/06/13 03:52:37;;;;;;;0.38;0.38;;;;;;;17.56;55.67;98788.16;4745565;30;20064;-85
2022/06/13 03:55:09;;;;;;;0.30;0.30;;;;;;;17.76;55.17;98785.13;4747894;30;20064;-85
2022/06/13 03:57:45;;;;;;;0.35;0.35;;;;;;;17.85;55.33;98776.28;4733474;30;20052;-86
2022/06/13 04:00:19;;;;;;;0.30;0.30;;;;;;;17.94;54.78;98767.13;4718851;30;20130;-87
2022/06/13 04:02:53;;;;;;;0.30;0.30;;;;;;;18.08;55.29;98769.06;4747609;30;20518;-85
2022/06/13 04:05:38;;;;;;;0.30;0.30;;;;;;;18.09;54.89;98770.69;4730845;30;20052;-86
2022/06/13 04:08:08;;;;;;;0.30;0.30;;;;;;;17.90;55.11;98759.81;4741142;30;20060;-87
2022/06/13 04:10:51;;;;;;;0.30;0.30;;;;;;;17.86;55.25;98761.53;4751370;30;20064;-85
2022/06/13 04:13:30;;;;;;;0.30;0.30;;;;;;;17.81;55.66;98769.81;4734246;30;20188;-88
2022/06/13 04:16:16;;;;;;;0.30;0.30;;;;;;;17.79;55.79;98766.53;4733139;30;20052;-85
2022/06/13 04:18:56;;;;;;;0.30;0.30;;;;;;;17.97;55.62;98761.03;4756038;30;20083;-86
2022/06/13 04:21:35;;;;;;;0.30;0.30;;;;;;;18.32;55.04;98758.81;4758832;30;20052;-86
2022/06/13 04:24:26;;;;;;;0.30;0.30;;;;;;;18.75;54.36;98755.81;4753468;30;20088;-87
2022/06/13 04:27:19;;;;;;;0.30;0.30;;;;;;;19.01;54.23;98747.88;4760074;30;20052;-84
2022/06/13 04:29:56;;;;;;;0.40;0.40;;;;;;;19.35;53.24;98741.16;4755783;30;20072;-86
2022/06/13 04:32:35;;;;;;;0.30;0.30;;;;;;;19.73;52.36;98750.97;4751136;30;20052;-86
2022/06/13 04:35:04;;;;;;;0.30;0.30;;;;;;;20.01;51.66;98740.69;4741510;30;20076;-85
2022/06/13 04:37:32;;;;;;;0.40;0.40;;;;;;;20.15;51.16;98757.84;4739754;30;20125;-86
2022/06/13 04:40:02;;;;;;;0.30;0.30;;;;;;;19.93;52.26;98750.47;4741323;30;20072;-87
2022/06/13 04:42:34;;;;;;;0.30;0.30;;;;;;;19.95;52.33;98761.91;4734400;30;20130;-85
2022/06/13 04:45:21;;;;;;;0.30;0.30;;;;;;;19.95;52.34;98755.63;4747587;30;20220;-89
2022/06/13 04:47:49;;;;;;;0.30;0.30;;;;;;;20.05;52.57;98760.84;4741986;30;20066;-84
2022/06/13 04:50:20;;;;;;;0.30;0.30;;;;;;;20.09;52.76;98748.94;4750738;30;20052;-87
2022/06/13 04:52:48;;;;;;;0.30;0.30;;;;;;;19.99;53.09;98765.63;4749141;30;20055;-85
2022/06/13 04:55:20;;;;;;;0.30;0.30;;;;;;;19.95;53.25;98763.84;4735137;30;20059;-89
2022/06/13 04:57:47;;;;;;;0.30;0.30;;;;;;;19.98;53.65;98771.41;4737403;30;20072;-88
2022/06/13 05:00:14;;;;;;;0.30;0.30;;;;;;;20.08;53.71;98763.78;4735641;30;20064;-83
2022/06/13 05:02:46;;;;;;;0.30;0.30;;;;;;;20.13;53.86;98758.16;4717734;30;20052;-87
2022/06/13 05:05:33;;;;;;;0.30;0.30;;;;;;;19.97;54.31;98767.88;4724161;30;20082;-83
2022/06/13 05:08:13;;;;;;;0.30;0.30;;;;;;;19.88;54.22;98769.78;4762166;30;20059;-84
2022/06/13 05:10:41;;;;;;;0.30;0.30;;;;;;;19.91;55.07;98764.47;4756639;30;20064;-81
2022/06/13 05:13:13;;;;;;;0.30;0.30;;;;;;;20.01;53.99;98768.88;4762926;30;20052;-87
2022/06/13 05:15:41;;;;;;;0.30;0.30;;;;;;;20.04;55.09;98767.44;4749781;30;20553;-85
2022/06/13 05:18:16;;;;;;;0.30;0.30;;;;;;;19.92;55.27;98766.06;4768054;30;20058;-86
2022/06/13 05:21:21;;;;;;;0.30;0.30;;;;;;;19.79;55.99;98775.16;4762931;30;20683;-84
2022/06/13 05:24:06;;;;;;;0.30;0.30;;;;;;;19.86;55.13;98775.53;4750081;30;20063;-86
2022/06/13 05:26:34;;;;;;;0.40;0.40;;;;;;;20.11;55.15;98768.63;4749726;30;20064;-84
2022/06/13 05:29:01;;;;;;;0.30;0.30;;;;;;;20.50;54.02;98771.72;4757172;30;20064;-86
2022/06/13 05:31:29;;;;;;;0.40;0.40;;;;;;;20.57;53.64;98766.63;4768809;30;20056;-84
2022/06/13 05:33:58;;;;;;;0.32;0.32;;;;;;;20.83;52.57;98771.41;4772950;30;20108;-85
2022/06/13 05:36:26;;;;;;;0.30;0.30;;;;;;;21.04;53.01;98777.09;4772151;30;20641;-85
2022/06/13 05:38:59;;;;;;;0.30;0.30;;;;;;;20.86;53.49;98788.00;4773553;30;20051;-85
2022/06/13 05:41:27;;;;;;;0.30;0.30;;;;;;;20.62;53.82;98782.13;4774006;30;20075;-84
2022/06/13 05:43:54;;;;;;;0.30;0.30;;;;;;;20.59;54.24;98772.59;4761899;30;20520;-84
2022/06/13 05:46:32;;;;;;;0.30;0.30;;;;;;;20.83;53.59;98768.66;4773997;30;20055;-85
2022/06/13 05:49:00;;;;;;;0.30;0.30;;;;;;;20.97;53.55;98780.31;4770409;30;20136;-83
2022/06/13 05:51:27;;;;;;;0.30;0.30;;;;;;;21.05;53.47;98771.28;4773410;30;20516;-87
2022/06/13 05:53:57;;;;;;;0.30;0.30;;;;;;;21.26;52.82;98767.94;4787405;30;20056;-86
2022/06/13 05:56:25;;;;;;;0.30;0.30;;;;;;;21.47;52.72;98763.47;4771369;30;20063;-86
2022/06/13 05:58:53;;;;;;;0.30;0.30;;;;;;;21.27;53.58;98769.53;4762435;30;20428;-85
2022/06/13 06:01:20;;;;;;;0.30;0.30;;;;;;;21.26;53.66;98762.44;4753369;30;20060;-87
2022/06/13 06:03:48;;;;;;;0.30;0.30;;;;;;;21.35;53.55;98782.50;4763347;30;20460;-85
2022/06/13 06:06:45;;;;;;;0.30;0.30;;;;;;;21.43;53.56;98771.53;4765860;30;20400;-83
2022/06/13 06:09:13;;;;;;;0.30;0.30;;;;;;;21.42;53.25;98761.69;4746690;30;20090;-85
2022/06/13 06:11:43;;;;;;;0.40;0.40;;;;;;;21.42;53.43;98766.34;4737440;30;20057;-90
2022/06/13 06:14:12;;;;;;;0.30;0.30;;;;;;;21.51;53.49;98758.94;4726386;30;20057;-85
2022/06/13 06:16:39;;;;;;;0.30;0.30;;;;;;;21.39;53.52;98767.00;4735448;30;20056;-86
2022/06/13 06:19:06;;;;;;;0.30;0.30;;;;;;;21.73;53.11;98748.94;4731671;30;20063;-87
2022/06/13 06:21:33;;;;;;;0.30;0.30;;;;;;;21.96;52.81;98752.31;4719048;30;20123;-84
2022/06/13 06:24:01;;;;;;;0.30;0.30;;;;;;;22.16;52.34;98759.06;4724188;30;20529;-84
2022/06/13 06:26:29;;;;;;;0.40;0.40;;;;;;;22.20;52.14;98757.28;4716562;30;20063;-83
2022/06/13 06:28:56;;;;;;;0.40;0.40;;;;;;;22.27;52.26;98749.34;4715056;30;20152;-84
2022/06/13 06:31:23;;;;;;;0.30;0.30;;;;;;;;;;4715590;30;20486;-81
2022/06/13 06:33:53;;;;;;;0.35;0.35;;;;;;;22.44;51.78;98751.22;4716473;30;20064;-86
2022/06/13 06:36:28;;;;;;;0.30;0.30;;;;;;;22.37;51.84;98750.94;4732516;30;20521;-86
2022/06/13 06:38:56;;;;;;;0.30;0.30;;;;;;;22.40;52.36;98758.50;4749003;30;20516;-87
2022/06/13 06:41:24;;;;;;;0.35;0.35;;;;;;;22.40;52.37;98753.00;4753195;30;20060;-84
2022/06/13 06:43:51;;;;;;;0.30;0.30;;;;;;;22.53;52.13;98757.47;4748301;30;20078;-85
2022/06/13 06:46:18;;;;;;;0.30;0.30;;;;;;;22.49;52.34;98749.09;4751369;30;20059;-85
2022/06/13 06:48:45;;;;;;;0.30;0.30;;;;;;;22.31;53.07;98753.06;4752262;30;20052;-86
2022/06/13 06:51:14;;;;;;;0.30;0.30;;;;;;;22.72;52.47;98754.34;4739873;30;20068;-86
2022/06/13 07:02:13;;;;;;;0.30;0.30;;;;;;;22.97;52.53;98743.53;4760788;30;20072;-86
2022/06/13 07:04:40;;;;;;;0.30;0.30;;;;;;;23.27;51.62;98744.31;4756514;30;20163;-86
2022/06/13 07:07:07;;;;;;;0.30;0.30;;;;;;;23.59;50.90;98745.53;4735598;30;20579;-86
2022/06/13 07:09:34;;;;;;;0.30;0.30;;;;;;;23.63;50.60;98751.97;4750854;30;20071;-85
2022/06/13 07:12:05;;;;;;;0.40;0.40;;;;;;;23.87;50.31;98750.50;4752411;30;20064;-86
2022/06/13 07:14:34;;;;;;;0.30;0.30;;;;;;;24.10;48.65;98746.19;4757043;30;20060;-86
2022/06/13 07:17:04;;;;;;;0.30;0.30;;;;;;;24.14;48.48;98746.34;4765386;30;20067;-87
2022/06/13 07:19:32;;;;;;;0.30;0.30;;;;;;;24.07;48.63;98751.59;4752139;30;20483;-86
2022/06/13 07:21:59;;;;;;;0.30;0.30;;;;;;;23.92;48.53;98750.28;4751822;30;20056;-87
2022/06/13 07:24:27;;;;;;;0.30;0.30;;;;;;;24.01;48.61;98746.31;4735848;30;20052;-86
2022/06/13 07:26:55;;;;;;;0.30;0.30;;;;;;;23.61;48.94;98742.44;4735789;30;20147;-86
2022/06/13 07:29:23;;;;;;;0.30;0.30;;;;;;;23.79;49.43;98747.47;4751672;30;20596;-85
2022/06/13 07:31:56;;;;;;;0.30;0.30;;;;;;;24.16;49.74;98736.59;4751391;30;20052;-85
2022/06/13 07:34:28;;;;;;;0.30;0.30;;;;;;;24.30;49.36;98738.22;4750292;30;20475;-85
2022/06/13 07:36:58;;;;;;;0.20;0.20;;;;;;;24.28;48.17;98751.53;4751047;30;20547;-85
2022/06/13 07:39:27;;;;;;;0.30;0.30;;;;;;;24.17;47.41;98751.97;4750959;30;20063;-85
2022/06/13 07:41:55;;;;;;;0.30;0.30;;;;;;;24.16;47.86;98741.28;4749355;30;20090;-85
2022/06/13 07:44:26;;;;;;;0.30;0.30;;;;;;;24.26;47.23;98745.53;4750972;30;20114;-85
2022/06/13 07:46:53;;;;;;;0.30;0.30;;;;;;;24.07;47.34;98744.13;4749846;30;20431;-86
2022/06/13 07:49:21;;;;;;;0.40;0.40;;;;;;;24.35;47.18;98744.31;4751112;30;20064;-85
2022/06/13 07:51:48;;;;;;;0.30;0.30;;;;;;;24.24;48.18;98743.16;4749601;30;20060;-85
2022/06/13 07:54:18;;;;;;;0.30;0.30;;;;;;;24.40;47.34;98746.84;4748746;30;20056;-85
2022/06/13 07:56:46;;;;;;;0.30;0.30;;;;;;;24.80;46.46;98745.41;4751536;30;20060;-85
2022/06/13 07:59:17;;;;;;;0.38;0.38;;;;;;;24.84;46.70;98754.63;4750769;30;20060;-86
2022/06/13 08:01:44;;;;;;;0.40;0.40;;;;;;;24.28;47.57;98759.81;4750827;30;20059;-85
2022/06/13 08:04:12;;;;;;;0.32;0.32;;;;;;;24.23;47.71;98744.28;4750768;30;20555;-86
2022/06/13 08:06:42;;;;;;;0.30;0.30;;;;;;;24.34;47.47;98741.91;4750925;30;20060;-86
2022/06/13 08:09:10;;;;;;;0.32;0.32;;;;;;;24.81;46.98;98745.06;4750155;30;20089;-85
2022/06/13 08:11:44;;;;;;;0.40;0.40;;;;;;;25.00;45.89;98738.94;4750046;30;20063;-84
2022/06/13 08:14:11;;;;;;;0.50;0.50;;;;;;;25.09;46.03;98738.81;4735331;30;20078;-86
2022/06/13 08:16:39;;;;;;;0.50;0.50;;;;;;;25.87;44.93;98729.31;4750859;30;20110;-86
2022/06/13 08:19:06;;;;;;;0.50;0.50;;;;;;;26.43;43.51;98736.69;4750533;30;20540;-85
2022/06/13 08:21:36;;;;;;;0.40;0.40;;;;;;;26.75;41.98;98717.34;4751014;30;20056;-86
2022/06/13 08:24:05;;;;;;;0.30;0.30;;;;;;;26.52;41.98;98725.47;4750888;30;20056;-86
2022/06/13 08:26:40;;;;;;;0.30;0.30;;;;;;;25.74;42.67;98730.50;4749800;30;20425;-86
2022/06/13 08:29:07;;;;;;;0.30;0.30;;;;;;;25.74;42.81;98717.47;4751981;30;20052;-85
2022/06/13 08:31:36;;;;;;;0.30;0.30;;;;;;;25.89;42.88;98712.38;4754443;30;20099;-86
2022/06/13 08:34:04;;;;;;;0.38;0.38;;;;;;;26.29;42.05;98703.16;4753412;30;20056;-84
2022/06/13 08:36:31;;;;;;;0.20;0.20;;;;;;;26.45;42.04;98708.69;4753202;30;20048;-86
2022/06/13 08:38:59;;;;;;;0.20;0.20;;;;;;;26.21;42.25;98701.38;4754118;30;20088;-86
2022/06/13 08:41:35;;;;;;;0.30;0.30;;;;;;;25.96;42.21;98703.47;4754493;30;20088;-85
2022/06/13 08:44:07;;;;;;;0.30;0.30;;;;;;;26.08;41.82;98706.16;4737933;30;20555;-86
2022/06/13 08:46:55;;;;;;;0.25;0.25;;;;;;;26.02;42.46;98702.06;4753926;30;20083;-86
2022/06/13 08:49:41;;;;;;;0.30;0.30;;;;;;;25.99;41.94;98719.34;4754010;30;20159;-85
2022/06/13 08:52:24;;;;;;;0.20;0.20;;;;;;;25.69;42.63;98712.19;4754107;30;20067;-84
2022/06/13 08:55:05;;;;;;;0.20;0.20;;;;;;;25.35;43.58;98713.59;4754490;30;20558;-85
2022/06/13 08:57:34;;;;;;;0.20;0.20;;;;;;;25.36;43.77;98704.16;4753746;30;20120;-84
2022/06/13 09:00:08;;;;;;;0.20;0.20;;;;;;;25.13;44.47;98701.09;4753155;30;20052;-86
2022/06/13 09:02:46;;;;;;;0.20;0.20;;;;;;;25.29;43.66;98706.69;4738377;30;20243;-86
2022/06/13 09:05:15;;;;;;;0.20;0.20;;;;;;;24.91;45.15;98701.59;4753333;30;20146;-85
2022/06/13 09:08:16;;;;;;;0.20;0.20;;;;;;;24.49;45.52;98688.06;4753667;30;20055;-85
2022/06/13 09:10:50;;;;;;;0.20;0.20;;;;;;;24.06;46.92;98681.88;4752668;30;20136;-85
2022/06/13 09:13:32;;;;;;;0.20;0.20;;;;;;;24.04;47.72;98689.69;4752882;30;20499;-88
2022/06/13 09:16:20;;;;;;;0.28;0.28;;;;;;;24.32;46.51;98680.78;4739085;30;20048;-85
2022/06/13 09:18:58;;;;;;;0.20;0.20;;;;;;;24.43;46.67;98685.50;4754012;30;20142;-86
2022/06/13 09:21:38;;;;;;;0.20;0.20;;;;;;;24.75;46.57;98682.97;4738257;30;20052;-85
2022/06/13 09:24:33;;;;;;;0.20;0.20;;;;;;;24.93;46.14;98686.28;4752908;30;20429;-84
2022/06/13 09:27:14;;;;;;;0.30;0.30;;;;;;;24.86;45.78;98675.84;4759314;30;20056;-84
2022/06/13 09:29:51;;;;;;;0.20;0.20;;;;;;;25.08;45.78;98684.75;4746274;30;20129;-84
2022/06/13 09:32:22;;;;;;;0.30;0.30;;;;;;;25.11;45.64;98692.34;4752458;30;20048;-86
2022/06/13 09:34:57;;;;;;;0.30;0.30;;;;;;;25.32;44.57;98683.09;4754540;30;20059;-85
2022/06/13 09:37:39;;;;;;;0.20;0.20;;;;;;;25.12;44.89;98680.16;4756166;30;20176;-86
2022/06/13 09:40:07;;;;;;;0.20;0.20;;;;;;;24.91;44.78;98674.78;4752197;30;20098;-84
2022/06/13 09:42:56;;;;;;;0.20;0.20;;;;;;;24.70;45.83;98661.13;4753172;30;20056;-85
2022/06/13 09:45:47;;;;;;;0.20;0.20;;;;;;;24.54;46.11;98674.84;4754399;30;20084;-85
2022/06/13 09:48:21;;;;;;;0.20;0.20;;;;;;;24.49;45.60;98677.81;4753616;30;20478;-85
2022/06/13 09:51:13;;;;;;;0.20;0.20;;;;;;;24.63;46.10;98678.25;4751940;30;20064;-85
2022/06/13 09:54:07;;;;;;;0.20;0.20;;;;;;;24.52;46.31;98684.59;4737725;30;20534;-86
2022/06/13 09:56:51;;;;;;;0.20;0.20;;;;;;;24.56;46.72;98680.81;4753424;30;20143;-86
2022/06/13 09:59:24;;;;;;;0.22;0.22;;;;;;;24.42;46.73;98680.31;4751680;30;20528;-86
2022/06/13 10:01:59;;;;;;;0.20;0.20;;;;;;;24.18;47.06;98672.81;4751936;30;20064;-86
2022/06/13 10:04:35;;;;;;;0.25;0.25;;;;;;;24.20;47.90;98673.28;4752302;30;20174;-85
2022/06/13 10:07:27;;;;;;;0.20;0.20;;;;;;;24.29;47.60;98674.00;4752530;30;20052;-86
2022/06/13 10:10:29;;;;;;;0.20;0.20;;;;;;;24.40;47.04;98674.34;4752992;30;20079;-86
2022/06/13 10:12:56;;;;;;;0.22;0.22;;;;;;;24.47;46.43;98671.84;4752311;30;20056;-85
2022/06/13 10:15:43;;;;;;;0.25;0.25;;;;;;;24.19;46.70;98664.22;4753435;30;20441;-86
2022/06/13 10:18:21;;;;;;;0.30;0.30;;;;;;;24.40;46.12;98668.81;4754010;30;20416;-85
2022/06/13 10:21:08;;;;;;;0.20;0.20;;;;;;;24.67;45.83;98672.06;4755937;30;20056;-85
2022/06/13 10:23:41;;;;;;;0.20;0.20;;;;;;;24.74;45.71;98659.31;4755428;30;20074;-85
2022/06/13 10:26:11;;;;;;;0.20;0.20;;;;;;;24.88;45.52;98650.66;4755612;30;20120;-86
2022/06/13 10:28:50;;;;;;;0.20;0.20;;;;;;;24.77;45.55;98652.28;4755665;30;20111;-85
2022/06/13 10:31:51;;;;;;;0.20;0.20;;;;;;;24.47;45.08;98646.22;4756249;30;20665;-86
2022/06/13 10:34:58;;;;;;;0.30;0.30;;;;;;;24.25;43.71;98641.94;4754438;30;20058;-85
2022/06/13 10:37:37;;;;;;;0.20;0.20;;;;;;;24.25;44.30;98634.47;4754927;30;20068;-86
2022/06/13 10:40:10;;;;;;;0.30;0.30;;;;;;;24.22;45.38;98641.47;4754097;30;20052;-86
2022/06/13 10:42:38;;;;;;;0.20;0.20;;;;;;;24.12;44.01;98639.16;4753526;30;20067;-87
2022/06/13 10:45:10;;;;;;;0.20;0.20;;;;;;;24.01;45.13;98613.22;4752091;30;20052;-85
2022/06/13 10:47:48;;;;;;;0.20;0.20;;;;;;;23.98;44.54;98635.94;4751390;30;20048;-86
2022/06/13 10:50:28;;;;;;;0.20;0.20;;;;;;;23.98;44.40;98641.47;4751825;30;20159;-86
2022/06/13 10:52:59;;;;;;;0.20;0.20;;;;;;;23.58;46.34;98634.56;4751206;30;20517;-86
2022/06/13 10:55:31;;;;;;;0.25;0.25;;;;;;;23.09;48.34;98648.13;4750656;30;20091;-86
2022/06/13 10:58:29;;;;;;;0.20;0.20;;;;;;;22.75;49.29;98643.66;4750528;30;20044;-85
2022/06/13 11:01:11;;;;;;;0.20;0.20;;;;;;;22.71;50.42;98645.44;4749209;30;20060;-86
2022/06/13 11:03:44;;;;;;;0.20;0.20;;;;;;;22.62;49.69;98648.25;4749390;30;20060;-86
2022/06/13 11:06:18;;;;;;;0.20;0.20;;;;;;;22.51;49.73;98647.03;4734533;30;20060;-85
2022/06/13 11:08:45;;;;;;;0.20;0.20;;;;;;;22.24;50.68;98653.81;4748925;30;20138;-86
2022/06/13 11:11:17;;;;;;;0.20;0.20;;;;;;;22.02;51.62;98635.59;4734798;30;20072;-86
2022/06/13 11:13:53;;;;;;;0.20;0.20;;;;;;;21.90;51.38;98641.75;4749837;30;20063;-86
2022/06/13 11:22:42;;;;;;;0.20;0.20;;;;;;;21.86;52.19;98649.88;4749148;30;20090;-86
2022/06/13 11:25:18;;;;;;;0.20;0.20;;;;;;;22.00;52.00;98660.66;4748563;30;20139;-86
2022/06/13 11:27:49;;;;;;;0.20;0.20;;;;;;;21.82;54.46;98642.59;4719894;30;20060;-86
2022/06/13 11:30:30;;;;;;;0.20;0.20;;;;;;;21.38;58.89;98648.19;4748947;30;20067;-86
2022/06/13 11:33:06;;;;;;;0.20;0.20;;;;;;;20.95;61.71;98654.44;4750290;30;20048;-86
2022/06/13 11:35:48;;;;;;;0.20;0.20;;;;;;;20.63;63.55;98641.19;4758207;30;20098;-85
2022/06/13 11:38:28;;;;;;;0.20;0.20;;;;;;;20.34;64.58;98640.59;4760894;30;20059;-86
2022/06/13 11:41:19;;;;;;;0.20;0.20;;;;;;;20.24;64.84;98646.38;4752258;30;20530;-86
2022/06/13 11:43:50;;;;;;;0.20;0.20;;;;;;;20.26;63.73;98651.53;4750400;30;20147;-86
2022/06/13 11:46:32;;;;;;;0.20;0.20;;;;;;;20.30;64.23;98658.78;4750304;30;20154;-87
2022/06/13 11:49:26;;;;;;;0.20;0.20;;;;;;;20.26;65.25;98673.47;4751814;30;20143;-86
2022/06/13 11:53:35;;;;;;;0.20;0.20;;;;;;;19.61;70.19;98677.59;4751234;30;20469;-86
2022/06/13 11:55:01;;;;;;;0.20;0.20;;;;;;;18.94;73.53;98662.75;4751030;30;20489;-87
2022/06/13 11:57:38;;;;;;;0.30;0.30;;;;;;;18.75;74.72;98664.78;4753114;30;20068;-87
2022/06/13 12:00:23;;;;;;;0.20;0.20;;;;;;;18.69;75.73;98671.50;4902152;24;20038;31
2022/06/13 12:03:05;;;;;;;0.30;0.30;;;;;;;18.61;75.88;98662.09;4745878;30;20071;-85
2022/06/13 12:05:37;;;;;;;0.30;0.30;;;;;;;18.72;76.00;98649.00;4737571;30;20049;-85
2022/06/13 12:08:19;;;;;;;0.20;0.20;;;;;;;18.96;75.96;98651.50;4753605;30;20061;-86
2022/06/13 12:11:19;;;;;;;0.30;0.30;;;;;;;19.08;74.43;98664.63;4734906;30;20067;-86
2022/06/13 12:13:48;;;;;;;0.20;0.20;;;;;;;19.25;74.53;98668.31;4723591;30;20068;-85
2022/06/13 12:16:30;;;;;;;0.20;0.20;;;;;;;19.34;72.18;98673.84;4724967;30;20053;-84
2022/06/13 12:19:31;;;;;;;0.20;0.20;;;;;;;19.24;73.76;98679.56;4729964;30;20110;-86
2022/06/13 12:22:10;;;;;;;0.20;0.20;;;;;;;19.16;73.89;98683.84;4724737;30;20056;-85
2022/06/13 12:24:56;;;;;;;0.20;0.20;;;;;;;19.30;74.33;98681.06;4726904;30;20456;-87
2022/06/13 12:27:40;;;;;;;0.20;0.20;;;;;;;19.33;74.27;98680.44;4732829;30;20513;-84
2022/06/13 12:30:17;;;;;;;;;;;;;;;19.34;73.75;98670.31;4728241;30;20539;-84
2022/06/13 12:32:50;;;;;;;0.30;0.30;;;;;;;19.39;74.43;98670.97;4718878;30;19931;-84